sensor_id;sensor_type;location;lat;lon;timestamp;P1;durP1;ratioP1;P2;durP2;ratioP2
24857;SDS011;12935;50.782;6.074;2022-07-06T00:00:55;25.33;;;9.33;;
24857;SDS011;12935;50.782;6.074;2022-07-06T00:03:21;28.40;;;8.60;;
24857;SDS011;12935;50.782;6.074;2022-07-06T00:05:46;21.40;;;9.70;;
24857;SDS011;12935;50.782;6.074;2022-07-06T00:08:11;19.97;;;7.93;;
24857;SDS011;12935;50.782;6.074;2022-07-06T00:10:36;32.70;;;8.87;;
24857;SDS011;12935;50.782;6.074;2022-07-06T00:13:02;27.63;;;8.80;;
24857;SDS011;12935;50.782;6.074;2022-07-06T00:15:27;28.10;;;8.00;;
24857;SDS011;12935;50.782;6.074;2022-07-06T00:17:52;22.37;;;8.17;;
24857;SDS011;12935;50.782;6.074;2022-07-06T00:20:18;20.60;;;7.83;;
24857;SDS011;12935;50.782;6.074;2022-07-06T00:22:43;29.40;;;8.67;;
24857;SDS011;12935;50.782;6.074;2022-07-06T00:25:08;18.27;;;7.60;;
24857;SDS011;12935;50.782;6.074;2022-07-06T00:27:34;32.10;;;8.90;;
24857;SDS011;12935;50.782;6.074;2022-07-06T00:29:59;25.93;;;8.30;;
24857;SDS011;12935;50.782;6.074;2022-07-06T00:32:24;35.80;;;8.60;;
24857;SDS011;12935;50.782;6.074;2022-07-06T00:34:50;25.67;;;8.37;;
24857;SDS011;12935;50.782;6.074;2022-07-06T00:37:15;23.60;;;7.80;;
24857;SDS011;12935;50.782;6.074;2022-07-06T00:39:41;28.60;;;8.30;;
24857;SDS011;12935;50.782;6.074;2022-07-06T00:42:06;35.77;;;9.97;;
24857;SDS011;12935;50.782;6.074;2022-07-06T00:44:31;28.20;;;8.30;;
24857;SDS011;12935;50.782;6.074;2022-07-06T00:46:58;21.33;;;7.50;;
24857;SDS011;12935;50.782;6.074;2022-07-06T00:49:24;23.53;;;7.30;;
24857;SDS011;12935;50.782;6.074;2022-07-06T00:52:08;32.93;;;7.97;;
24857;SDS011;12935;50.782;6.074;2022-07-06T00:54:33;20.50;;;7.37;;
24857;SDS011;12935;50.782;6.074;2022-07-06T00:57:01;25.23;;;8.00;;
24857;SDS011;12935;50.782;6.074;2022-07-06T00:59:27;29.27;;;8.20;;
24857;SDS011;12935;50.782;6.074;2022-07-06T01:01:53;29.07;;;7.93;;
24857;SDS011;12935;50.782;6.074;2022-07-06T01:04:18;22.00;;;7.70;;
24857;SDS011;12935;50.782;6.074;2022-07-06T01:06:44;29.43;;;8.60;;
24857;SDS011;12935;50.782;6.074;2022-07-06T01:09:11;25.60;;;8.07;;
24857;SDS011;12935;50.782;6.074;2022-07-06T01:11:36;23.40;;;7.60;;
24857;SDS011;12935;50.782;6.074;2022-07-06T01:14:02;17.93;;;7.17;;
24857;SDS011;12935;50.782;6.074;2022-07-06T01:16:27;33.93;;;8.70;;
24857;SDS011;12935;50.782;6.074;2022-07-06T01:18:53;30.07;;;8.57;;
24857;SDS011;12935;50.782;6.074;2022-07-06T01:21:18;26.30;;;7.57;;
24857;SDS011;12935;50.782;6.074;2022-07-06T01:23:44;35.83;;;9.40;;
24857;SDS011;12935;50.782;6.074;2022-07-06T01:26:12;23.97;;;7.03;;
24857;SDS011;12935;50.782;6.074;2022-07-06T01:28:40;26.17;;;8.03;;
24857;SDS011;12935;50.782;6.074;2022-07-06T01:31:17;30.37;;;8.37;;
24857;SDS011;12935;50.782;6.074;2022-07-06T01:33:45;18.77;;;6.80;;
24857;SDS011;12935;50.782;6.074;2022-07-06T01:36:10;29.40;;;7.20;;
24857;SDS011;12935;50.782;6.074;2022-07-06T01:38:45;42.43;;;9.53;;
24857;SDS011;12935;50.782;6.074;2022-07-06T01:41:15;21.90;;;6.60;;
24857;SDS011;12935;50.782;6.074;2022-07-06T01:43:41;22.33;;;7.87;;
24857;SDS011;12935;50.782;6.074;2022-07-06T01:46:07;27.30;;;7.80;;
24857;SDS011;12935;50.782;6.074;2022-07-06T01:48:32;25.40;;;6.97;;
24857;SDS011;12935;50.782;6.074;2022-07-06T01:50:58;27.10;;;7.87;;
24857;SDS011;12935;50.782;6.074;2022-07-06T01:53:23;26.17;;;7.23;;
24857;SDS011;12935;50.782;6.074;2022-07-06T01:55:48;26.83;;;7.60;;
24857;SDS011;12935;50.782;6.074;2022-07-06T01:58:14;36.10;;;8.27;;
24857;SDS011;12935;50.782;6.074;2022-07-06T02:00:39;22.00;;;7.20;;
24857;SDS011;12935;50.782;6.074;2022-07-06T02:03:05;35.10;;;7.97;;
24857;SDS011;12935;50.782;6.074;2022-07-06T02:05:30;20.23;;;7.17;;
24857;SDS011;12935;50.782;6.074;2022-07-06T02:07:55;28.53;;;8.23;;
24857;SDS011;12935;50.782;6.074;2022-07-06T02:10:20;25.10;;;7.73;;
24857;SDS011;12935;50.782;6.074;2022-07-06T02:12:46;26.10;;;7.33;;
24857;SDS011;12935;50.782;6.074;2022-07-06T02:15:11;23.40;;;7.00;;
24857;SDS011;12935;50.782;6.074;2022-07-06T02:17:37;21.27;;;6.57;;
24857;SDS011;12935;50.782;6.074;2022-07-06T02:20:03;37.80;;;8.83;;
24857;SDS011;12935;50.782;6.074;2022-07-06T02:22:30;25.23;;;8.60;;
24857;SDS011;12935;50.782;6.074;2022-07-06T02:24:55;23.70;;;6.87;;
24857;SDS011;12935;50.782;6.074;2022-07-06T02:27:20;30.50;;;7.50;;
24857;SDS011;12935;50.782;6.074;2022-07-06T02:29:46;32.00;;;7.50;;
24857;SDS011;12935;50.782;6.074;2022-07-06T02:32:11;30.70;;;7.90;;
24857;SDS011;12935;50.782;6.074;2022-07-06T02:34:36;36.93;;;8.73;;
24857;SDS011;12935;50.782;6.074;2022-07-06T02:37:02;15.20;;;6.47;;
24857;SDS011;12935;50.782;6.074;2022-07-06T02:39:27;21.13;;;9.23;;
24857;SDS011;12935;50.782;6.074;2022-07-06T02:41:52;24.07;;;7.17;;
24857;SDS011;12935;50.782;6.074;2022-07-06T02:44:17;30.33;;;8.17;;
24857;SDS011;12935;50.782;6.074;2022-07-06T02:46:43;34.40;;;8.40;;
24857;SDS011;12935;50.782;6.074;2022-07-06T02:49:08;23.53;;;7.07;;
24857;SDS011;12935;50.782;6.074;2022-07-06T02:51:33;26.17;;;7.43;;
24857;SDS011;12935;50.782;6.074;2022-07-06T02:53:59;20.47;;;7.23;;
24857;SDS011;12935;50.782;6.074;2022-07-06T02:56:24;21.23;;;6.77;;
24857;SDS011;12935;50.782;6.074;2022-07-06T02:58:49;32.50;;;8.03;;
24857;SDS011;12935;50.782;6.074;2022-07-06T03:01:14;19.70;;;6.90;;
24857;SDS011;12935;50.782;6.074;2022-07-06T03:03:40;42.47;;;8.50;;
24857;SDS011;12935;50.782;6.074;2022-07-06T03:06:05;19.97;;;5.97;;
24857;SDS011;12935;50.782;6.074;2022-07-06T03:08:30;26.73;;;8.07;;
24857;SDS011;12935;50.782;6.074;2022-07-06T03:10:56;25.27;;;6.70;;
24857;SDS011;12935;50.782;6.074;2022-07-06T03:13:21;30.43;;;8.43;;
24857;SDS011;12935;50.782;6.074;2022-07-06T03:15:46;33.77;;;8.37;;
24857;SDS011;12935;50.782;6.074;2022-07-06T03:18:11;36.07;;;8.60;;
24857;SDS011;12935;50.782;6.074;2022-07-06T03:20:37;34.73;;;8.40;;
24857;SDS011;12935;50.782;6.074;2022-07-06T03:23:02;22.03;;;7.03;;
24857;SDS011;12935;50.782;6.074;2022-07-06T03:25:27;16.90;;;6.83;;
24857;SDS011;12935;50.782;6.074;2022-07-06T03:27:53;26.77;;;7.70;;
24857;SDS011;12935;50.782;6.074;2022-07-06T03:30:18;30.50;;;8.70;;
24857;SDS011;12935;50.782;6.074;2022-07-06T03:32:43;19.80;;;6.13;;
24857;SDS011;12935;50.782;6.074;2022-07-06T03:35:08;29.67;;;7.27;;
24857;SDS011;12935;50.782;6.074;2022-07-06T03:37:34;25.70;;;7.23;;
24857;SDS011;12935;50.782;6.074;2022-07-06T03:39:59;20.93;;;7.13;;
24857;SDS011;12935;50.782;6.074;2022-07-06T03:42:24;35.20;;;9.03;;
24857;SDS011;12935;50.782;6.074;2022-07-06T03:44:50;27.70;;;7.20;;
24857;SDS011;12935;50.782;6.074;2022-07-06T03:47:15;30.93;;;8.27;;
24857;SDS011;12935;50.782;6.074;2022-07-06T03:49:40;24.33;;;7.87;;
24857;SDS011;12935;50.782;6.074;2022-07-06T03:52:05;17.97;;;6.90;;
24857;SDS011;12935;50.782;6.074;2022-07-06T03:54:31;28.97;;;7.23;;
24857;SDS011;12935;50.782;6.074;2022-07-06T03:56:56;27.87;;;7.60;;
24857;SDS011;12935;50.782;6.074;2022-07-06T03:59:21;17.50;;;6.17;;
24857;SDS011;12935;50.782;6.074;2022-07-06T04:01:46;30.00;;;8.20;;
24857;SDS011;12935;50.782;6.074;2022-07-06T04:04:12;21.53;;;7.07;;
24857;SDS011;12935;50.782;6.074;2022-07-06T04:06:37;22.30;;;8.70;;
24857;SDS011;12935;50.782;6.074;2022-07-06T04:09:03;20.73;;;6.07;;
24857;SDS011;12935;50.782;6.074;2022-07-06T04:11:28;31.93;;;7.90;;
24857;SDS011;12935;50.782;6.074;2022-07-06T04:13:54;29.53;;;8.03;;
24857;SDS011;12935;50.782;6.074;2022-07-06T04:16:20;22.10;;;7.00;;
24857;SDS011;12935;50.782;6.074;2022-07-06T04:18:45;18.00;;;8.20;;
24857;SDS011;12935;50.782;6.074;2022-07-06T04:21:11;26.20;;;7.70;;
24857;SDS011;12935;50.782;6.074;2022-07-06T04:23:36;26.37;;;7.03;;
24857;SDS011;12935;50.782;6.074;2022-07-06T04:26:01;22.40;;;6.90;;
24857;SDS011;12935;50.782;6.074;2022-07-06T04:28:27;20.90;;;7.13;;
24857;SDS011;12935;50.782;6.074;2022-07-06T04:30:52;18.73;;;6.30;;
24857;SDS011;12935;50.782;6.074;2022-07-06T04:33:17;18.17;;;6.70;;
24857;SDS011;12935;50.782;6.074;2022-07-06T04:35:42;22.07;;;7.00;;
24857;SDS011;12935;50.782;6.074;2022-07-06T04:38:08;20.60;;;7.50;;
24857;SDS011;12935;50.782;6.074;2022-07-06T04:40:33;24.57;;;7.27;;
24857;SDS011;12935;50.782;6.074;2022-07-06T04:42:58;19.60;;;6.67;;
24857;SDS011;12935;50.782;6.074;2022-07-06T04:45:24;16.17;;;6.50;;
24857;SDS011;12935;50.782;6.074;2022-07-06T04:47:49;23.60;;;7.80;;
24857;SDS011;12935;50.782;6.074;2022-07-06T04:50:15;22.10;;;7.13;;
24857;SDS011;12935;50.782;6.074;2022-07-06T04:52:40;21.73;;;7.00;;
24857;SDS011;12935;50.782;6.074;2022-07-06T04:55:06;19.43;;;6.90;;
24857;SDS011;12935;50.782;6.074;2022-07-06T04:57:33;25.03;;;7.80;;
24857;SDS011;12935;50.782;6.074;2022-07-06T04:59:59;15.00;;;6.73;;
24857;SDS011;12935;50.782;6.074;2022-07-06T05:02:24;29.23;;;7.90;;
24857;SDS011;12935;50.782;6.074;2022-07-06T05:04:50;28.30;;;7.97;;
24857;SDS011;12935;50.782;6.074;2022-07-06T05:07:16;21.47;;;6.97;;
24857;SDS011;12935;50.782;6.074;2022-07-06T05:09:41;22.00;;;6.83;;
24857;SDS011;12935;50.782;6.074;2022-07-06T05:12:06;21.37;;;7.37;;
24857;SDS011;12935;50.782;6.074;2022-07-06T05:14:32;23.00;;;6.80;;
24857;SDS011;12935;50.782;6.074;2022-07-06T05:16:58;25.47;;;8.20;;
24857;SDS011;12935;50.782;6.074;2022-07-06T05:19:23;22.30;;;7.43;;
24857;SDS011;12935;50.782;6.074;2022-07-06T05:21:48;25.37;;;7.37;;
24857;SDS011;12935;50.782;6.074;2022-07-06T05:24:14;26.17;;;7.10;;
24857;SDS011;12935;50.782;6.074;2022-07-06T05:26:40;22.83;;;6.90;;
24857;SDS011;12935;50.782;6.074;2022-07-06T05:29:06;38.37;;;8.50;;
24857;SDS011;12935;50.782;6.074;2022-07-06T05:31:31;23.60;;;8.90;;
24857;SDS011;12935;50.782;6.074;2022-07-06T05:33:57;19.30;;;6.67;;
24857;SDS011;12935;50.782;6.074;2022-07-06T05:36:22;21.50;;;7.60;;
24857;SDS011;12935;50.782;6.074;2022-07-06T05:38:47;30.20;;;8.60;;
24857;SDS011;12935;50.782;6.074;2022-07-06T05:41:13;32.07;;;10.33;;
24857;SDS011;12935;50.782;6.074;2022-07-06T05:43:38;25.83;;;7.73;;
24857;SDS011;12935;50.782;6.074;2022-07-06T05:46:04;16.17;;;6.57;;
24857;SDS011;12935;50.782;6.074;2022-07-06T05:48:29;26.23;;;9.43;;
24857;SDS011;12935;50.782;6.074;2022-07-06T05:51:13;27.33;;;8.43;;
24857;SDS011;12935;50.782;6.074;2022-07-06T05:53:38;41.33;;;9.30;;
24857;SDS011;12935;50.782;6.074;2022-07-06T05:56:04;15.40;;;6.70;;
24857;SDS011;12935;50.782;6.074;2022-07-06T05:58:29;28.63;;;8.60;;
24857;SDS011;12935;50.782;6.074;2022-07-06T06:00:54;29.13;;;9.07;;
24857;SDS011;12935;50.782;6.074;2022-07-06T06:03:20;31.63;;;8.60;;
24857;SDS011;12935;50.782;6.074;2022-07-06T06:05:45;26.37;;;7.77;;
24857;SDS011;12935;50.782;6.074;2022-07-06T06:08:11;22.13;;;8.53;;
24857;SDS011;12935;50.782;6.074;2022-07-06T06:10:36;19.97;;;7.07;;
24857;SDS011;12935;50.782;6.074;2022-07-06T06:13:01;18.10;;;6.97;;
24857;SDS011;12935;50.782;6.074;2022-07-06T06:15:27;26.13;;;8.20;;
24857;SDS011;12935;50.782;6.074;2022-07-06T06:17:53;19.70;;;7.60;;
24857;SDS011;12935;50.782;6.074;2022-07-06T06:20:18;33.53;;;8.97;;
24857;SDS011;12935;50.782;6.074;2022-07-06T06:22:47;25.00;;;8.40;;
24857;SDS011;12935;50.782;6.074;2022-07-06T06:25:14;22.23;;;7.97;;
24857;SDS011;12935;50.782;6.074;2022-07-06T06:27:40;32.33;;;9.00;;
24857;SDS011;12935;50.782;6.074;2022-07-06T06:30:06;31.80;;;8.90;;
24857;SDS011;12935;50.782;6.074;2022-07-06T06:32:32;24.50;;;7.70;;
24857;SDS011;12935;50.782;6.074;2022-07-06T06:34:57;35.63;;;10.10;;
24857;SDS011;12935;50.782;6.074;2022-07-06T06:37:22;20.60;;;8.33;;
24857;SDS011;12935;50.782;6.074;2022-07-06T06:39:48;29.10;;;7.97;;
24857;SDS011;12935;50.782;6.074;2022-07-06T06:42:13;22.77;;;8.17;;
24857;SDS011;12935;50.782;6.074;2022-07-06T06:44:38;31.63;;;8.90;;
24857;SDS011;12935;50.782;6.074;2022-07-06T06:47:03;27.97;;;8.13;;
24857;SDS011;12935;50.782;6.074;2022-07-06T06:49:29;17.37;;;7.80;;
24857;SDS011;12935;50.782;6.074;2022-07-06T06:51:54;28.67;;;8.50;;
24857;SDS011;12935;50.782;6.074;2022-07-06T06:54:19;26.10;;;8.07;;
24857;SDS011;12935;50.782;6.074;2022-07-06T06:56:45;24.97;;;8.17;;
24857;SDS011;12935;50.782;6.074;2022-07-06T06:59:10;16.60;;;7.87;;
24857;SDS011;12935;50.782;6.074;2022-07-06T07:01:35;19.30;;;7.60;;
24857;SDS011;12935;50.782;6.074;2022-07-06T07:04:01;24.23;;;8.30;;
24857;SDS011;12935;50.782;6.074;2022-07-06T07:06:26;28.37;;;9.27;;
24857;SDS011;12935;50.782;6.074;2022-07-06T07:08:51;23.57;;;8.80;;
24857;SDS011;12935;50.782;6.074;2022-07-06T07:11:16;22.90;;;8.17;;
24857;SDS011;12935;50.782;6.074;2022-07-06T07:13:42;21.77;;;8.63;;
24857;SDS011;12935;50.782;6.074;2022-07-06T07:16:07;26.00;;;8.77;;
24857;SDS011;12935;50.782;6.074;2022-07-06T07:18:32;24.13;;;9.07;;
24857;SDS011;12935;50.782;6.074;2022-07-06T07:20:58;18.30;;;8.50;;
24857;SDS011;12935;50.782;6.074;2022-07-06T07:23:23;28.60;;;10.10;;
24857;SDS011;12935;50.782;6.074;2022-07-06T07:25:48;25.73;;;9.30;;
24857;SDS011;12935;50.782;6.074;2022-07-06T07:28:14;23.43;;;8.30;;
24857;SDS011;12935;50.782;6.074;2022-07-06T07:30:39;22.27;;;8.77;;
24857;SDS011;12935;50.782;6.074;2022-07-06T07:33:05;24.40;;;9.00;;
24857;SDS011;12935;50.782;6.074;2022-07-06T07:35:30;35.53;;;9.93;;
24857;SDS011;12935;50.782;6.074;2022-07-06T08:05:00;38.70;;;9.93;;
24857;SDS011;12935;50.782;6.074;2022-07-06T08:07:25;34.73;;;11.10;;
24857;SDS011;12935;50.782;6.074;2022-07-06T08:09:50;30.47;;;10.00;;
24857;SDS011;12935;50.782;6.074;2022-07-06T08:12:16;40.30;;;11.20;;
24857;SDS011;12935;50.782;6.074;2022-07-06T08:14:41;34.07;;;10.53;;
24857;SDS011;12935;50.782;6.074;2022-07-06T08:17:06;29.03;;;9.63;;
24857;SDS011;12935;50.782;6.074;2022-07-06T08:19:31;28.57;;;8.90;;
24857;SDS011;12935;50.782;6.074;2022-07-06T08:21:57;27.40;;;10.00;;
24857;SDS011;12935;50.782;6.074;2022-07-06T08:24:22;28.87;;;9.30;;
24857;SDS011;12935;50.782;6.074;2022-07-06T08:26:48;27.13;;;9.50;;
24857;SDS011;12935;50.782;6.074;2022-07-06T08:29:13;35.33;;;9.10;;
24857;SDS011;12935;50.782;6.074;2022-07-06T08:31:38;29.43;;;10.20;;
24857;SDS011;12935;50.782;6.074;2022-07-06T08:34:03;23.50;;;9.10;;
24857;SDS011;12935;50.782;6.074;2022-07-06T08:36:29;25.20;;;9.40;;
24857;SDS011;12935;50.782;6.074;2022-07-06T08:38:54;19.93;;;8.73;;
24857;SDS011;12935;50.782;6.074;2022-07-06T08:41:21;42.97;;;11.00;;
24857;SDS011;12935;50.782;6.074;2022-07-06T08:43:47;35.07;;;10.33;;
24857;SDS011;12935;50.782;6.074;2022-07-06T08:46:15;27.50;;;9.30;;
24857;SDS011;12935;50.782;6.074;2022-07-06T08:48:41;36.40;;;10.90;;
24857;SDS011;12935;50.782;6.074;2022-07-06T08:51:06;43.73;;;11.33;;
24857;SDS011;12935;50.782;6.074;2022-07-06T08:53:32;25.20;;;9.17;;
24857;SDS011;12935;50.782;6.074;2022-07-06T08:55:57;26.40;;;9.43;;
24857;SDS011;12935;50.782;6.074;2022-07-06T08:58:26;51.97;;;11.10;;
24857;SDS011;12935;50.782;6.074;2022-07-06T09:00:55;31.60;;;9.83;;
24857;SDS011;12935;50.782;6.074;2022-07-06T09:03:21;19.70;;;9.87;;
24857;SDS011;12935;50.782;6.074;2022-07-06T09:05:48;36.80;;;12.33;;
24857;SDS011;12935;50.782;6.074;2022-07-06T09:08:15;30.17;;;10.63;;
24857;SDS011;12935;50.782;6.074;2022-07-06T09:10:40;20.53;;;10.70;;
24857;SDS011;12935;50.782;6.074;2022-07-06T09:13:06;18.70;;;9.20;;
24857;SDS011;12935;50.782;6.074;2022-07-06T09:15:33;15.67;;;7.93;;
24857;SDS011;12935;50.782;6.074;2022-07-06T09:18:06;24.10;;;10.10;;
24857;SDS011;12935;50.782;6.074;2022-07-06T09:20:32;27.17;;;9.93;;
24857;SDS011;12935;50.782;6.074;2022-07-06T09:22:59;30.33;;;10.93;;
24857;SDS011;12935;50.782;6.074;2022-07-06T09:25:26;34.90;;;11.33;;
24857;SDS011;12935;50.782;6.074;2022-07-06T09:27:52;24.47;;;9.57;;
24857;SDS011;12935;50.782;6.074;2022-07-06T09:30:21;20.07;;;10.63;;
24857;SDS011;12935;50.782;6.074;2022-07-06T09:32:48;29.70;;;11.23;;
24857;SDS011;12935;50.782;6.074;2022-07-06T09:35:19;35.00;;;12.63;;
24857;SDS011;12935;50.782;6.074;2022-07-06T09:40:35;30.73;;;10.87;;
24857;SDS011;12935;50.782;6.074;2022-07-06T09:43:08;27.10;;;10.10;;
24857;SDS011;12935;50.782;6.074;2022-07-06T09:45:38;18.10;;;9.67;;
24857;SDS011;12935;50.782;6.074;2022-07-06T09:48:17;24.70;;;10.00;;
24857;SDS011;12935;50.782;6.074;2022-07-06T09:50:47;19.07;;;9.70;;
24857;SDS011;12935;50.782;6.074;2022-07-06T09:53:18;31.20;;;12.03;;
24857;SDS011;12935;50.782;6.074;2022-07-06T09:55:45;36.60;;;12.53;;
24857;SDS011;12935;50.782;6.074;2022-07-06T09:58:12;16.43;;;10.20;;
24857;SDS011;12935;50.782;6.074;2022-07-06T10:00:37;27.27;;;11.37;;
24857;SDS011;12935;50.782;6.074;2022-07-06T10:03:03;21.33;;;10.10;;
24857;SDS011;12935;50.782;6.074;2022-07-06T10:05:29;29.27;;;11.50;;
24857;SDS011;12935;50.782;6.074;2022-07-06T10:07:56;30.83;;;11.57;;
24857;SDS011;12935;50.782;6.074;2022-07-06T10:10:28;21.53;;;10.93;;
24857;SDS011;12935;50.782;6.074;2022-07-06T10:12:57;17.77;;;10.83;;
24857;SDS011;12935;50.782;6.074;2022-07-06T10:15:24;20.53;;;10.80;;
24857;SDS011;12935;50.782;6.074;2022-07-06T10:17:51;26.90;;;11.17;;
24857;SDS011;12935;50.782;6.074;2022-07-06T10:20:17;30.07;;;12.07;;
24857;SDS011;12935;50.782;6.074;2022-07-06T10:22:45;20.43;;;10.90;;
24857;SDS011;12935;50.782;6.074;2022-07-06T10:25:12;22.43;;;11.77;;
24857;SDS011;12935;50.782;6.074;2022-07-06T10:27:40;20.90;;;12.07;;
24857;SDS011;12935;50.782;6.074;2022-07-06T10:30:07;30.30;;;13.33;;
24857;SDS011;12935;50.782;6.074;2022-07-06T10:32:33;31.47;;;13.43;;
24857;SDS011;12935;50.782;6.074;2022-07-06T10:35:00;23.63;;;12.23;;
24857;SDS011;12935;50.782;6.074;2022-07-06T10:37:26;23.73;;;12.87;;
24857;SDS011;12935;50.782;6.074;2022-07-06T10:39:52;27.50;;;13.70;;
24857;SDS011;12935;50.782;6.074;2022-07-06T10:48:15;22.53;;;13.30;;
24857;SDS011;12935;50.782;6.074;2022-07-06T10:53:11;30.30;;;13.63;;
24857;SDS011;12935;50.782;6.074;2022-07-06T10:55:46;22.90;;;12.80;;
24857;SDS011;12935;50.782;6.074;2022-07-06T10:58:15;31.20;;;13.13;;
24857;SDS011;12935;50.782;6.074;2022-07-06T11:00:53;26.70;;;13.30;;
24857;SDS011;12935;50.782;6.074;2022-07-06T11:08:50;33.03;;;14.00;;
24857;SDS011;12935;50.782;6.074;2022-07-06T11:11:40;23.80;;;12.23;;
24857;SDS011;12935;50.782;6.074;2022-07-06T11:14:08;21.00;;;12.57;;
24857;SDS011;12935;50.782;6.074;2022-07-06T11:16:38;27.27;;;12.60;;
24857;SDS011;12935;50.782;6.074;2022-07-06T11:19:06;26.33;;;13.40;;
24857;SDS011;12935;50.782;6.074;2022-07-06T11:21:55;18.93;;;11.37;;
24857;SDS011;12935;50.782;6.074;2022-07-06T11:24:23;25.03;;;11.83;;
24857;SDS011;12935;50.782;6.074;2022-07-06T11:26:53;23.37;;;12.30;;
24857;SDS011;12935;50.782;6.074;2022-07-06T11:29:20;22.67;;;13.00;;
24857;SDS011;12935;50.782;6.074;2022-07-06T11:31:47;18.77;;;11.43;;
24857;SDS011;12935;50.782;6.074;2022-07-06T11:34:17;27.23;;;12.60;;
24857;SDS011;12935;50.782;6.074;2022-07-06T11:36:43;40.53;;;13.77;;
24857;SDS011;12935;50.782;6.074;2022-07-06T11:39:09;22.43;;;12.97;;
24857;SDS011;12935;50.782;6.074;2022-07-06T11:41:34;25.50;;;12.70;;
24857;SDS011;12935;50.782;6.074;2022-07-06T11:44:00;23.53;;;13.10;;
24857;SDS011;12935;50.782;6.074;2022-07-06T11:46:29;23.40;;;12.40;;
24857;SDS011;12935;50.782;6.074;2022-07-06T11:49:00;23.17;;;11.50;;
24857;SDS011;12935;50.782;6.074;2022-07-06T11:51:28;17.40;;;11.80;;
24857;SDS011;12935;50.782;6.074;2022-07-06T11:53:55;26.70;;;12.63;;
24857;SDS011;12935;50.782;6.074;2022-07-06T11:56:22;25.43;;;12.73;;
24857;SDS011;12935;50.782;6.074;2022-07-06T11:58:51;31.90;;;13.27;;
24857;SDS011;12935;50.782;6.074;2022-07-06T12:01:17;39.23;;;14.23;;
24857;SDS011;12935;50.782;6.074;2022-07-06T12:03:43;21.43;;;11.90;;
24857;SDS011;12935;50.782;6.074;2022-07-06T12:06:13;27.60;;;13.30;;
24857;SDS011;12935;50.782;6.074;2022-07-06T12:08:42;36.13;;;13.83;;
24857;SDS011;12935;50.782;6.074;2022-07-06T12:11:25;20.30;;;12.97;;
24857;SDS011;12935;50.782;6.074;2022-07-06T12:13:59;35.53;;;13.93;;
24857;SDS011;12935;50.782;6.074;2022-07-06T12:16:38;20.77;;;12.60;;
24857;SDS011;12935;50.782;6.074;2022-07-06T12:19:04;80.23;;;16.20;;
24857;SDS011;12935;50.782;6.074;2022-07-06T12:21:30;23.20;;;12.77;;
24857;SDS011;12935;50.782;6.074;2022-07-06T12:23:56;32.80;;;14.23;;
24857;SDS011;12935;50.782;6.074;2022-07-06T12:26:23;30.03;;;13.20;;
24857;SDS011;12935;50.782;6.074;2022-07-06T12:31:31;17.97;;;13.00;;
24857;SDS011;12935;50.782;6.074;2022-07-06T12:34:02;23.63;;;12.63;;
24857;SDS011;12935;50.782;6.074;2022-07-06T12:36:28;30.57;;;13.30;;
24857;SDS011;12935;50.782;6.074;2022-07-06T12:38:53;23.03;;;12.63;;
24857;SDS011;12935;50.782;6.074;2022-07-06T12:43:59;29.20;;;12.47;;
24857;SDS011;12935;50.782;6.074;2022-07-06T12:46:29;28.53;;;13.50;;
24857;SDS011;12935;50.782;6.074;2022-07-06T12:48:57;26.30;;;12.90;;
24857;SDS011;12935;50.782;6.074;2022-07-06T12:51:23;19.27;;;11.97;;
24857;SDS011;12935;50.782;6.074;2022-07-06T12:53:49;26.83;;;13.83;;
24857;SDS011;12935;50.782;6.074;2022-07-06T12:56:15;20.60;;;12.97;;
24857;SDS011;12935;50.782;6.074;2022-07-06T12:58:56;47.53;;;15.30;;
24857;SDS011;12935;50.782;6.074;2022-07-06T13:01:23;28.97;;;12.97;;
24857;SDS011;12935;50.782;6.074;2022-07-06T13:03:52;20.53;;;13.23;;
24857;SDS011;12935;50.782;6.074;2022-07-06T13:06:39;18.47;;;12.30;;
24857;SDS011;12935;50.782;6.074;2022-07-06T13:09:04;69.00;;;14.60;;
24857;SDS011;12935;50.782;6.074;2022-07-06T13:11:29;26.37;;;14.63;;
24857;SDS011;12935;50.782;6.074;2022-07-06T13:13:55;26.87;;;15.37;;
24857;SDS011;12935;50.782;6.074;2022-07-06T13:16:20;21.60;;;14.30;;
24857;SDS011;12935;50.782;6.074;2022-07-06T13:18:49;33.53;;;16.27;;
24857;SDS011;12935;50.782;6.074;2022-07-06T13:21:14;30.07;;;15.27;;
24857;SDS011;12935;50.782;6.074;2022-07-06T13:23:39;25.73;;;15.47;;
24857;SDS011;12935;50.782;6.074;2022-07-06T13:26:05;22.10;;;16.93;;
24857;SDS011;12935;50.782;6.074;2022-07-06T13:28:30;52.30;;;17.67;;
24857;SDS011;12935;50.782;6.074;2022-07-06T13:30:55;87.73;;;23.50;;
24857;SDS011;12935;50.782;6.074;2022-07-06T13:33:21;42.83;;;17.53;;
24857;SDS011;12935;50.782;6.074;2022-07-06T13:35:46;50.47;;;18.57;;
24857;SDS011;12935;50.782;6.074;2022-07-06T13:38:11;60.43;;;19.00;;
24857;SDS011;12935;50.782;6.074;2022-07-06T13:40:36;28.43;;;17.40;;
24857;SDS011;12935;50.782;6.074;2022-07-06T13:43:02;17.43;;;15.27;;
24857;SDS011;12935;50.782;6.074;2022-07-06T13:45:27;32.93;;;17.20;;
24857;SDS011;12935;50.782;6.074;2022-07-06T13:47:52;43.20;;;18.23;;
24857;SDS011;12935;50.782;6.074;2022-07-06T13:50:18;40.07;;;17.00;;
24857;SDS011;12935;50.782;6.074;2022-07-06T13:52:43;27.53;;;16.93;;
24857;SDS011;12935;50.782;6.074;2022-07-06T13:55:08;25.70;;;16.47;;
24857;SDS011;12935;50.782;6.074;2022-07-06T13:57:34;26.20;;;16.73;;
24857;SDS011;12935;50.782;6.074;2022-07-06T13:59:59;22.33;;;15.40;;
24857;SDS011;12935;50.782;6.074;2022-07-06T14:02:25;43.03;;;17.67;;
24857;SDS011;12935;50.782;6.074;2022-07-06T14:04:50;27.50;;;16.77;;
24857;SDS011;12935;50.782;6.074;2022-07-06T14:07:15;42.10;;;18.27;;
24857;SDS011;12935;50.782;6.074;2022-07-06T14:09:41;22.10;;;15.67;;
24857;SDS011;12935;50.782;6.074;2022-07-06T14:12:06;21.70;;;16.20;;
24857;SDS011;12935;50.782;6.074;2022-07-06T14:14:31;21.97;;;16.23;;
24857;SDS011;12935;50.782;6.074;2022-07-06T14:16:57;22.93;;;17.40;;
24857;SDS011;12935;50.782;6.074;2022-07-06T14:19:23;32.33;;;18.03;;
24857;SDS011;12935;50.782;6.074;2022-07-06T14:21:48;42.00;;;17.63;;
24857;SDS011;12935;50.782;6.074;2022-07-06T14:24:14;20.93;;;16.80;;
24857;SDS011;12935;50.782;6.074;2022-07-06T14:26:39;27.70;;;16.23;;
24857;SDS011;12935;50.782;6.074;2022-07-06T14:29:05;47.73;;;16.60;;
24857;SDS011;12935;50.782;6.074;2022-07-06T14:31:30;17.70;;;14.30;;
24857;SDS011;12935;50.782;6.074;2022-07-06T14:33:56;26.80;;;15.93;;
24857;SDS011;12935;50.782;6.074;2022-07-06T14:36:21;33.23;;;15.83;;
24857;SDS011;12935;50.782;6.074;2022-07-06T14:38:46;26.17;;;15.23;;
24857;SDS011;12935;50.782;6.074;2022-07-06T14:41:12;25.73;;;15.10;;
24857;SDS011;12935;50.782;6.074;2022-07-06T14:43:37;20.30;;;14.13;;
24857;SDS011;12935;50.782;6.074;2022-07-06T14:46:03;19.57;;;14.10;;
24857;SDS011;12935;50.782;6.074;2022-07-06T14:48:29;24.27;;;14.60;;
24857;SDS011;12935;50.782;6.074;2022-07-06T14:50:54;30.63;;;14.60;;
24857;SDS011;12935;50.782;6.074;2022-07-06T14:53:20;22.03;;;13.70;;
24857;SDS011;12935;50.782;6.074;2022-07-06T14:55:45;24.10;;;13.80;;
24857;SDS011;12935;50.782;6.074;2022-07-06T14:58:12;28.10;;;15.10;;
24857;SDS011;12935;50.782;6.074;2022-07-06T15:00:37;22.70;;;13.50;;
24857;SDS011;12935;50.782;6.074;2022-07-06T15:03:02;24.33;;;14.80;;
24857;SDS011;12935;50.782;6.074;2022-07-06T15:05:28;21.27;;;14.37;;
24857;SDS011;12935;50.782;6.074;2022-07-06T15:07:53;27.83;;;14.87;;
24857;SDS011;12935;50.782;6.074;2022-07-06T15:10:18;28.30;;;14.30;;
24857;SDS011;12935;50.782;6.074;2022-07-06T15:12:44;29.97;;;15.23;;